createdAt,value
2023-05-21T00:00:17.836Z,12.67
2023-05-21T00:02:46.631Z,13.03
2023-05-21T00:05:17.198Z,12.30
2023-05-21T00:07:45.895Z,13.13
2023-05-21T00:10:14.430Z,12.67
2023-05-21T00:12:44.426Z,13.20
2023-05-21T00:15:14.516Z,12.43
2023-05-21T00:17:43.636Z,13.20
2023-05-21T00:20:13.163Z,12.07
2023-05-21T00:22:42.547Z,12.27
2023-05-21T00:25:12.898Z,13.20
2023-05-21T00:27:41.610Z,13.07
2023-05-21T00:30:10.436Z,12.93
2023-05-21T00:32:40.661Z,12.47
2023-05-21T00:35:10.153Z,12.87
2023-05-21T00:37:38.582Z,13.40
2023-05-21T00:40:08.945Z,13.77
2023-05-21T00:42:40.171Z,12.90
2023-05-21T00:45:09.631Z,12.23
2023-05-21T00:47:39.829Z,12.37
2023-05-21T00:50:09.061Z,13.07
2023-05-21T00:52:42.443Z,12.97
2023-05-21T00:55:11.410Z,12.93
2023-05-21T00:57:41.076Z,13.20
2023-05-21T01:00:10.952Z,13.90
2023-05-21T01:02:41.030Z,13.07
2023-05-21T01:05:09.838Z,12.97
2023-05-21T01:07:41.906Z,12.47
2023-05-21T01:10:12.022Z,12.73
2023-05-21T01:12:44.390Z,12.83
2023-05-21T01:15:13.535Z,13.23
2023-05-21T01:17:46.187Z,13.30
2023-05-21T01:20:18.367Z,14.20
2023-05-21T01:22:54.391Z,14.10
2023-05-21T01:25:23.342Z,13.30
2023-05-21T01:27:52.039Z,14.00
2023-05-21T01:30:22.241Z,13.97
2023-05-21T01:32:58.203Z,13.70
2023-05-21T01:35:31.344Z,14.73
2023-05-21T01:38:09.539Z,14.30
2023-05-21T01:40:46.847Z,16.57
2023-05-21T01:43:16.722Z,14.70
2023-05-21T01:45:47.060Z,15.57
2023-05-21T01:48:17.656Z,15.63
2023-05-21T01:50:47.496Z,14.77
2023-05-21T01:53:17.548Z,14.73
2023-05-21T01:55:47.261Z,14.70
2023-05-21T01:58:17.225Z,14.90
2023-05-21T02:00:46.801Z,14.43
2023-05-21T02:03:16.725Z,16.27
2023-05-21T02:05:45.156Z,15.83
2023-05-21T02:08:15.546Z,15.23
2023-05-21T02:10:45.187Z,16.13
2023-05-21T02:13:13.776Z,15.60
2023-05-21T02:15:42.421Z,17.00
2023-05-21T02:18:11.639Z,15.97
2023-05-21T02:20:39.821Z,14.83
2023-05-21T02:23:08.033Z,13.70
2023-05-21T02:25:36.773Z,15.57
2023-05-21T02:28:07.514Z,15.40
2023-05-21T02:30:36.001Z,15.23
2023-05-21T02:33:04.207Z,15.70
2023-05-21T02:35:32.483Z,15.43
2023-05-21T02:38:03.277Z,15.10
2023-05-21T02:40:32.982Z,15.50
2023-05-21T02:43:01.349Z,15.00
2023-05-21T02:45:31.630Z,15.27
2023-05-21T02:48:00.459Z,15.80
2023-05-21T02:50:28.793Z,16.27
2023-05-21T02:52:57.339Z,15.57
2023-05-21T02:55:25.894Z,15.40
2023-05-21T02:57:55.361Z,15.17
2023-05-21T03:00:23.754Z,15.87
2023-05-21T03:02:53.617Z,15.80
2023-05-21T03:05:22.243Z,15.53
2023-05-21T03:07:50.477Z,15.10
2023-05-21T03:10:18.759Z,15.50
2023-05-21T03:12:47.466Z,15.13
2023-05-21T03:15:17.379Z,15.07
2023-05-21T03:17:45.780Z,15.83
2023-05-21T03:20:17.322Z,15.80
2023-05-21T03:22:45.938Z,15.27
2023-05-21T03:25:14.548Z,15.70
2023-05-21T03:27:42.771Z,15.47
2023-05-21T03:30:12.083Z,16.17
2023-05-21T03:32:41.579Z,15.57
2023-05-21T03:35:10.300Z,16.03
2023-05-21T03:37:39.905Z,16.20
2023-05-21T03:40:10.880Z,16.77
2023-05-21T03:42:39.692Z,17.03
2023-05-21T03:45:08.741Z,15.97
2023-05-21T03:47:37.246Z,17.10
2023-05-21T03:50:06.813Z,15.93
2023-05-21T03:52:35.355Z,16.97
2023-05-21T03:55:05.865Z,16.50
2023-05-21T03:57:34.252Z,15.47
2023-05-21T04:00:02.756Z,15.73
2023-05-21T04:02:31.009Z,14.73
2023-05-21T04:04:59.198Z,15.53
2023-05-21T04:07:27.796Z,16.27
2023-05-21T04:09:56.177Z,15.80
2023-05-21T04:12:26.969Z,15.73
2023-05-21T04:14:55.012Z,16.33
2023-05-21T04:17:23.505Z,16.67
2023-05-21T04:19:52.414Z,15.43
2023-05-21T04:22:21.873Z,15.57
2023-05-21T04:24:50.305Z,16.80
2023-05-21T04:27:19.443Z,14.93
2023-05-21T04:29:50.788Z,15.93
2023-05-21T04:32:19.467Z,15.87
2023-05-21T04:34:47.661Z,15.70
2023-05-21T04:37:18.268Z,16.23
2023-05-21T04:39:47.084Z,15.53
2023-05-21T04:42:15.237Z,16.17
2023-05-21T04:44:44.694Z,15.90
2023-05-21T04:47:16.134Z,16.50
2023-05-21T04:49:44.542Z,15.97
2023-05-21T04:52:12.705Z,16.83
2023-05-21T04:54:42.152Z,16.40
2023-05-21T04:57:10.681Z,16.67
2023-05-21T04:59:39.644Z,16.50
2023-05-21T05:02:07.802Z,16.80
2023-05-21T05:04:37.709Z,16.33
2023-05-21T05:07:06.245Z,16.73
2023-05-21T05:09:34.579Z,16.00
2023-05-21T05:12:03.053Z,16.87
2023-05-21T05:14:31.308Z,17.63
2023-05-21T05:17:00.984Z,17.97
2023-05-21T05:19:29.707Z,16.67
2023-05-21T05:21:59.641Z,17.03
2023-05-21T05:24:27.866Z,16.70
2023-05-21T05:26:56.265Z,17.73
2023-05-21T05:29:24.482Z,17.20
2023-05-21T05:31:52.630Z,17.50
2023-05-21T05:34:22.350Z,16.83
2023-05-21T05:36:50.834Z,17.27
2023-05-21T05:39:21.127Z,17.00
2023-05-21T05:41:49.408Z,16.83
2023-05-21T05:44:17.863Z,16.70
2023-05-21T05:46:46.114Z,16.47
2023-05-21T05:49:15.118Z,16.10
2023-05-21T05:51:43.688Z,16.53
2023-05-21T05:54:11.972Z,16.67
2023-05-21T05:56:42.035Z,17.00
2023-05-21T05:59:10.417Z,16.93
2023-05-21T06:01:38.739Z,16.87
2023-05-21T06:04:06.979Z,16.80
2023-05-21T06:06:35.251Z,17.43
2023-05-21T06:09:03.623Z,17.53
2023-05-21T06:11:32.923Z,17.03
2023-05-21T06:14:02.786Z,16.33
2023-05-21T06:16:31.659Z,16.73
2023-05-21T06:19:00.521Z,16.90
2023-05-21T06:21:28.917Z,16.83
2023-05-21T06:23:57.066Z,16.07
2023-05-21T06:26:26.520Z,16.07
2023-05-21T06:28:55.125Z,19.37
2023-05-21T06:31:24.922Z,18.80
2023-05-21T06:33:53.449Z,22.50
2023-05-21T06:36:21.837Z,18.10
2023-05-21T06:38:50.052Z,18.60
2023-05-21T06:41:18.321Z,18.53
2023-05-21T06:43:46.621Z,18.43
2023-05-21T06:46:16.040Z,18.20
2023-05-21T06:48:46.447Z,17.00
2023-05-21T06:51:14.510Z,16.93
2023-05-21T06:53:43.621Z,16.93
2023-05-21T06:56:13.166Z,15.93
2023-05-21T06:58:42.951Z,15.30
2023-05-21T07:01:11.938Z,15.87
2023-05-21T07:03:40.517Z,16.57
2023-05-21T07:06:10.693Z,15.60
2023-05-21T07:08:38.907Z,15.53
2023-05-21T07:11:07.503Z,15.77
2023-05-21T07:13:36.998Z,16.77
2023-05-21T07:16:05.361Z,16.03
2023-05-21T07:18:33.469Z,15.47
2023-05-21T07:21:01.897Z,16.17
2023-05-21T07:23:31.823Z,16.10
2023-05-21T07:26:00.159Z,15.67
2023-05-21T07:28:28.300Z,14.53
2023-05-21T07:30:56.638Z,15.67
2023-05-21T07:33:25.287Z,14.73
2023-05-21T07:35:53.714Z,15.83
2023-05-21T07:38:21.841Z,15.50
2023-05-21T07:40:51.644Z,15.67
2023-05-21T07:43:22.815Z,15.63
2023-05-21T07:45:51.065Z,15.10
2023-05-21T07:48:21.722Z,14.75
2023-05-21T07:50:50.400Z,15.27
2023-05-21T07:53:18.541Z,15.43
2023-05-21T07:55:48.848Z,14.63
2023-05-21T07:58:22.510Z,14.90
2023-05-21T08:00:51.296Z,14.97
2023-05-21T08:03:20.229Z,14.67
2023-05-21T08:05:50.943Z,14.27
2023-05-21T08:08:22.255Z,14.60
2023-05-21T08:10:50.954Z,14.07
2023-05-21T08:13:21.054Z,13.18
2023-05-21T08:15:52.684Z,13.77
2023-05-21T08:18:24.073Z,14.13
2023-05-21T08:20:52.532Z,14.20
2023-05-21T08:23:21.297Z,14.13
2023-05-21T08:25:49.510Z,13.80
2023-05-21T08:28:17.761Z,27.50
2023-05-21T08:30:47.295Z,14.93
2023-05-21T08:33:15.749Z,13.50
2023-05-21T08:35:43.880Z,12.85
2023-05-21T08:38:12.263Z,14.38
2023-05-21T08:40:41.730Z,13.73
2023-05-21T08:43:13.944Z,14.30
2023-05-21T08:45:46.004Z,13.32
2023-05-21T08:48:18.157Z,13.57
2023-05-21T08:50:48.142Z,14.10
2023-05-21T08:53:27.490Z,13.02
2023-05-21T08:55:57.882Z,13.57
2023-05-21T08:58:26.192Z,12.98
2023-05-21T09:00:56.839Z,12.70
2023-05-21T09:03:27.862Z,12.07
2023-05-21T09:05:56.817Z,12.25
2023-05-21T09:08:31.332Z,12.25
2023-05-21T09:11:00.462Z,12.48
2023-05-21T09:13:31.939Z,13.00
2023-05-21T09:16:00.724Z,12.75
2023-05-21T09:18:30.873Z,12.27
2023-05-21T09:21:00.755Z,12.40
2023-05-21T09:23:30.834Z,12.05
2023-05-21T09:25:59.017Z,12.70
2023-05-21T09:28:27.553Z,12.98
2023-05-21T09:30:56.270Z,12.25
2023-05-21T09:33:30.909Z,12.65
2023-05-21T09:35:59.069Z,12.65
2023-05-21T09:38:27.621Z,12.25
2023-05-21T09:40:58.068Z,11.98
2023-05-21T09:43:26.907Z,11.77
2023-05-21T09:45:57.789Z,12.43
2023-05-21T09:48:37.054Z,12.75
2023-05-21T09:51:14.952Z,12.10
2023-05-21T09:53:50.169Z,11.93
2023-05-21T09:56:22.501Z,12.05
2023-05-21T09:58:54.788Z,12.10
2023-05-21T10:01:23.323Z,11.50
2023-05-21T10:03:57.596Z,11.35
2023-05-21T10:06:27.991Z,11.38
2023-05-21T10:08:59.982Z,11.45
2023-05-21T10:11:33.052Z,11.20
2023-05-21T10:14:06.084Z,11.88
2023-05-21T10:16:37.636Z,12.68
2023-05-21T10:19:11.141Z,11.15
2023-05-21T10:21:41.101Z,11.52
2023-05-21T10:24:10.848Z,11.18
2023-05-21T10:26:39.937Z,10.52
2023-05-21T10:29:09.601Z,10.85
2023-05-21T10:31:40.366Z,11.23
2023-05-21T10:34:11.811Z,10.93
2023-05-21T10:36:40.050Z,11.25
2023-05-21T10:39:09.877Z,11.02
2023-05-21T10:41:49.064Z,11.00
2023-05-21T10:44:25.312Z,10.50
2023-05-21T10:47:29.277Z,10.15
2023-05-21T10:50:17.970Z,9.93
2023-05-21T10:53:01.962Z,10.60
2023-05-21T10:55:48.546Z,10.65
2023-05-21T10:58:51.682Z,10.80
2023-05-21T11:01:20.504Z,11.13
2023-05-21T11:03:49.296Z,10.48
2023-05-21T11:06:27.655Z,10.98
2023-05-21T11:08:56.308Z,11.18
2023-05-21T11:11:45.181Z,10.05
2023-05-21T11:14:33.042Z,10.40
2023-05-21T11:17:02.331Z,10.00
2023-05-21T11:19:39.302Z,10.52
2023-05-21T11:22:24.518Z,9.80
2023-05-21T11:24:53.485Z,10.65
2023-05-21T11:27:33.684Z,10.90
2023-05-21T11:30:05.503Z,10.40
2023-05-21T11:32:33.826Z,9.75
2023-05-21T11:35:03.574Z,9.35
2023-05-21T11:37:35.009Z,10.23
2023-05-21T11:40:27.463Z,9.95
2023-05-21T11:42:56.981Z,10.30
2023-05-21T11:45:31.097Z,10.23
2023-05-21T11:47:59.749Z,9.82
2023-05-21T11:50:30.722Z,9.98
2023-05-21T11:53:01.529Z,10.45
2023-05-21T11:55:30.044Z,10.68
2023-05-21T11:58:01.103Z,9.60
2023-05-21T12:00:29.277Z,9.75
2023-05-21T12:02:58.993Z,9.57
2023-05-21T12:05:28.007Z,9.95
2023-05-21T12:07:56.928Z,10.27
2023-05-21T12:10:26.824Z,9.95
2023-05-21T12:12:56.978Z,10.93
2023-05-21T12:15:28.214Z,10.65
2023-05-21T12:17:58.384Z,11.02
2023-05-21T12:20:30.693Z,10.30
2023-05-21T12:23:00.876Z,9.70
2023-05-21T12:25:32.249Z,10.35
2023-05-21T12:28:01.585Z,10.30
2023-05-21T12:30:30.488Z,10.15
2023-05-21T12:33:02.416Z,10.18
2023-05-21T12:35:32.423Z,12.15
2023-05-21T12:38:02.729Z,10.88
2023-05-21T12:40:40.009Z,10.90
2023-05-21T12:43:08.701Z,14.45
2023-05-21T12:45:39.434Z,13.23
2023-05-21T12:48:08.453Z,11.80
2023-05-21T12:50:40.925Z,12.00
2023-05-21T12:53:11.620Z,10.55
2023-05-21T12:55:43.017Z,10.63
2023-05-21T12:58:17.967Z,14.25
2023-05-21T13:00:46.573Z,11.80
2023-05-21T13:03:14.738Z,11.57
2023-05-21T13:05:43.413Z,10.45
2023-05-21T13:08:14.275Z,10.77
2023-05-21T13:10:44.703Z,10.98
2023-05-21T13:13:13.122Z,10.70
2023-05-21T13:15:41.702Z,9.73
2023-05-21T13:18:10.550Z,10.27
2023-05-21T13:20:39.565Z,10.00
2023-05-21T13:23:10.480Z,9.55
2023-05-21T13:25:39.652Z,10.45
2023-05-21T13:28:10.651Z,10.95
2023-05-21T13:30:39.281Z,10.93
2023-05-21T13:33:07.912Z,10.75
2023-05-21T13:35:36.549Z,10.90
2023-05-21T13:38:04.972Z,10.68
2023-05-21T13:40:36.538Z,10.65
2023-05-21T13:43:06.556Z,10.88
2023-05-21T13:45:36.345Z,10.90
2023-05-21T13:48:05.285Z,10.23
2023-05-21T13:50:33.654Z,10.70
2023-05-21T13:53:02.416Z,10.88
2023-05-21T13:55:31.122Z,9.93
2023-05-21T13:57:59.397Z,11.02
2023-05-21T14:00:27.811Z,10.80
2023-05-21T14:02:58.066Z,10.07
2023-05-21T14:05:26.571Z,9.68
2023-05-21T14:07:55.802Z,9.82
2023-05-21T14:10:26.310Z,8.82
2023-05-21T14:13:01.453Z,7.18
2023-05-21T14:15:37.816Z,6.55
2023-05-21T14:18:12.313Z,6.93
2023-05-21T14:20:41.246Z,6.18
2023-05-21T14:23:11.807Z,7.18
2023-05-21T14:25:43.747Z,6.28
2023-05-21T14:28:14.195Z,6.28
2023-05-21T14:30:42.761Z,6.82
2023-05-21T14:33:13.599Z,6.65
2023-05-21T14:35:46.420Z,6.78
2023-05-21T14:38:16.127Z,6.97
2023-05-21T14:40:44.591Z,5.78
2023-05-21T14:43:13.082Z,6.30
2023-05-21T14:45:41.501Z,6.25
2023-05-21T14:48:14.321Z,7.57
2023-05-21T14:50:44.515Z,7.05
2023-05-21T14:53:14.369Z,7.28
2023-05-21T14:55:43.267Z,5.93
2023-05-21T14:58:11.996Z,6.32
2023-05-21T15:00:40.719Z,6.35
2023-05-21T15:03:09.212Z,7.15
2023-05-21T15:05:37.994Z,7.07
2023-05-21T15:08:09.706Z,6.97
2023-05-21T15:10:38.116Z,6.95
2023-05-21T15:13:06.609Z,6.80
2023-05-21T15:15:36.675Z,6.65
2023-05-21T15:18:05.406Z,6.97
2023-05-21T15:20:34.025Z,6.68
2023-05-21T15:25:35.761Z,7.15
2023-05-21T15:28:05.007Z,7.30
2023-05-21T15:30:33.370Z,7.05
2023-05-21T15:33:02.874Z,6.95
2023-05-21T15:35:31.549Z,6.82
2023-05-21T15:37:59.967Z,7.00
2023-05-21T15:40:28.273Z,7.30
2023-05-21T15:42:58.383Z,9.25
2023-05-21T15:45:26.582Z,8.93
2023-05-21T15:47:55.227Z,8.68
2023-05-21T15:50:23.514Z,7.55
2023-05-21T15:52:54.825Z,7.40
2023-05-21T15:55:23.353Z,7.70
2023-05-21T15:57:54.488Z,6.63
2023-05-21T16:00:24.652Z,6.82
2023-05-21T16:02:52.815Z,6.78
2023-05-21T16:05:21.111Z,6.88
2023-05-21T16:07:49.981Z,8.02
2023-05-21T16:10:18.501Z,8.60
2023-05-21T16:12:46.769Z,8.95
2023-05-21T16:15:15.828Z,8.27
2023-05-21T16:17:46.756Z,8.35
2023-05-21T16:20:16.352Z,8.30
2023-05-21T16:22:47.052Z,8.63
2023-05-21T16:25:15.397Z,8.23
2023-05-21T16:27:43.574Z,8.88
2023-05-21T16:30:14.233Z,7.72
2023-05-21T16:32:42.751Z,7.60
2023-05-21T16:35:12.448Z,9.13
2023-05-21T16:37:40.809Z,8.43
2023-05-21T16:40:10.357Z,8.40
2023-05-21T16:42:39.272Z,8.02
2023-05-21T16:45:08.608Z,8.02
2023-05-21T16:47:37.066Z,8.25
2023-05-21T16:50:06.484Z,7.60
2023-05-21T16:52:37.843Z,7.70
2023-05-21T16:55:06.876Z,7.22
2023-05-21T16:57:35.080Z,8.07
2023-05-21T17:00:05.115Z,7.70
2023-05-21T17:02:33.465Z,8.18
2023-05-21T17:05:01.693Z,8.90
2023-05-21T17:07:29.882Z,8.88
2023-05-21T17:10:00.008Z,9.75
2023-05-21T17:12:28.673Z,10.15
2023-05-21T17:14:57.287Z,11.20
2023-05-21T17:17:26.079Z,11.82
2023-05-21T17:19:54.771Z,11.15
2023-05-21T17:22:23.242Z,10.77
2023-05-21T17:24:54.660Z,11.82
2023-05-21T17:27:24.755Z,11.60
2023-05-21T17:29:53.374Z,13.27
2023-05-21T17:32:22.517Z,13.05
2023-05-21T17:34:50.749Z,13.18
2023-05-21T17:37:18.870Z,12.38
2023-05-21T17:39:47.257Z,12.90
2023-05-21T17:42:15.612Z,12.52
2023-05-21T17:44:45.819Z,12.18
2023-05-21T17:47:14.580Z,13.07
2023-05-21T17:49:43.209Z,13.07
2023-05-21T17:52:11.446Z,13.23
2023-05-21T17:54:39.827Z,12.65
2023-05-21T17:57:09.798Z,12.15
2023-05-21T17:59:42.189Z,12.50
2023-05-21T18:02:17.018Z,12.93
2023-05-21T18:04:46.841Z,13.77
2023-05-21T18:07:15.384Z,13.60
2023-05-21T18:09:44.334Z,12.20
2023-05-21T18:12:14.206Z,13.13
2023-05-21T18:14:42.377Z,12.15
2023-05-21T18:17:10.568Z,12.40
2023-05-21T18:19:40.676Z,12.43
2023-05-21T18:22:09.606Z,12.43
2023-05-21T18:24:38.491Z,12.50
2023-05-21T18:27:07.232Z,11.95
2023-05-21T18:29:35.438Z,12.48
2023-05-21T18:32:03.688Z,12.40
2023-05-21T18:34:32.179Z,12.32
2023-05-21T18:37:02.087Z,12.48
2023-05-21T18:39:30.556Z,12.15
2023-05-21T18:42:12.028Z,12.77
2023-05-21T18:44:40.993Z,11.57
2023-05-21T18:47:09.511Z,11.65
2023-05-21T18:49:37.900Z,12.32
2023-05-21T18:52:08.204Z,12.90
2023-05-21T18:54:36.934Z,12.43
2023-05-21T18:57:05.233Z,13.18
2023-05-21T18:59:33.911Z,12.23
2023-05-21T19:02:02.366Z,13.05
2023-05-21T19:04:31.127Z,12.30
2023-05-21T19:06:59.361Z,12.40
2023-05-21T19:09:29.235Z,12.60
2023-05-21T19:11:57.552Z,12.30
2023-05-21T19:14:25.965Z,12.60
2023-05-21T19:16:54.305Z,12.10
2023-05-21T19:19:22.981Z,12.98
2023-05-21T19:21:53.003Z,12.45
2023-05-21T19:24:21.376Z,12.55
2023-05-21T19:26:51.095Z,13.77
2023-05-21T19:29:19.248Z,13.95
2023-05-21T19:31:47.744Z,13.45
2023-05-21T19:34:16.538Z,14.10
2023-05-21T19:36:52.781Z,13.43
2023-05-21T19:39:22.169Z,13.63
2023-05-21T19:41:53.111Z,13.98
2023-05-21T19:44:21.565Z,14.60
2023-05-21T19:46:50.288Z,13.90
2023-05-21T19:49:20.113Z,13.68
2023-05-21T19:51:49.633Z,14.20
2023-05-21T19:54:18.736Z,13.82
2023-05-21T19:56:46.852Z,13.43
2023-05-21T19:59:16.437Z,12.73
2023-05-21T20:01:45.440Z,13.05
2023-05-21T20:04:14.431Z,13.35
2023-05-21T20:06:42.618Z,14.27
2023-05-21T20:09:13.429Z,13.60
2023-05-21T20:11:42.432Z,13.77
2023-05-21T20:14:11.040Z,13.20
2023-05-21T20:16:40.902Z,13.50
2023-05-21T20:19:10.888Z,13.38
2023-05-21T20:21:39.487Z,14.18
2023-05-21T20:24:09.211Z,13.63
2023-05-21T20:26:37.428Z,12.63
2023-05-21T20:29:06.657Z,14.73
2023-05-21T20:31:35.179Z,13.40
2023-05-21T20:34:09.054Z,13.18
2023-05-21T20:36:37.683Z,13.43
2023-05-21T20:39:06.461Z,13.48
2023-05-21T20:41:37.635Z,13.85
2023-05-21T20:44:07.167Z,13.05
2023-05-21T20:46:38.570Z,14.25
2023-05-21T20:49:10.067Z,13.68
2023-05-21T20:51:38.545Z,13.68
2023-05-21T20:54:07.136Z,13.05
2023-05-21T20:56:42.180Z,13.65
2023-05-21T20:59:12.328Z,13.18
2023-05-21T21:01:41.441Z,13.00
2023-05-21T21:04:11.570Z,13.02
2023-05-21T21:06:40.599Z,12.68
2023-05-21T21:09:09.055Z,13.38
2023-05-21T21:11:37.805Z,13.05
2023-05-21T21:14:06.307Z,12.50
2023-05-21T21:16:34.532Z,12.68
2023-05-21T21:19:03.090Z,12.88
2023-05-21T21:21:33.092Z,13.15
2023-05-21T21:24:01.541Z,12.23
2023-05-21T21:26:29.702Z,13.23
2023-05-21T21:28:59.682Z,12.63
2023-05-21T21:31:27.858Z,12.63
2023-05-21T21:33:56.282Z,12.27
2023-05-21T21:36:24.531Z,12.18
2023-05-21T21:38:54.578Z,12.15
2023-05-21T21:41:23.338Z,13.57
2023-05-21T21:43:52.541Z,12.57
2023-05-21T21:46:20.845Z,12.55
2023-05-21T21:48:49.305Z,11.70
2023-05-21T21:51:17.497Z,11.27
2023-05-21T21:53:45.645Z,11.48
2023-05-21T21:56:16.487Z,11.32
2023-05-21T21:58:46.934Z,11.40
2023-05-21T22:01:15.174Z,11.90
2023-05-21T22:03:43.470Z,12.02
2023-05-21T22:06:11.733Z,12.10
2023-05-21T22:08:42.769Z,11.40
2023-05-21T22:11:11.116Z,12.35
2023-05-21T22:13:42.162Z,11.75
2023-05-21T22:16:12.020Z,11.93
2023-05-21T22:18:42.209Z,11.93
2023-05-21T22:21:11.133Z,11.40
2023-05-21T22:23:39.757Z,11.85
2023-05-21T22:26:08.147Z,11.27
2023-05-21T22:28:36.326Z,11.88
2023-05-21T22:31:06.454Z,11.30
2023-05-21T22:33:34.912Z,11.32
2023-05-21T22:36:04.456Z,11.43
2023-05-21T22:38:32.720Z,11.75
2023-05-21T22:41:01.212Z,11.82
2023-05-21T22:43:29.469Z,11.82
2023-05-21T22:45:57.652Z,12.57
2023-05-21T22:48:30.818Z,11.68
2023-05-21T22:50:59.674Z,11.23
2023-05-21T22:53:28.076Z,11.18
2023-05-21T22:55:56.700Z,11.45
2023-05-21T22:58:25.017Z,11.63
2023-05-21T23:00:53.477Z,10.50
2023-05-21T23:03:21.707Z,11.20
2023-05-21T23:05:51.763Z,11.30
2023-05-21T23:08:21.378Z,10.98
2023-05-21T23:10:49.877Z,10.75
2023-05-21T23:13:18.145Z,10.43
2023-05-21T23:15:48.702Z,11.23
2023-05-21T23:18:17.463Z,11.20
2023-05-21T23:20:46.201Z,10.82
2023-05-21T23:23:16.077Z,12.25
2023-05-21T23:25:44.929Z,10.57
2023-05-21T23:28:13.123Z,11.55
2023-05-21T23:30:41.565Z,11.05
2023-05-21T23:33:10.017Z,11.88
2023-05-21T23:35:38.315Z,10.70
2023-05-21T23:38:06.628Z,11.85
2023-05-21T23:40:37.277Z,11.55
2023-05-21T23:43:06.171Z,10.68
2023-05-21T23:45:34.814Z,11.35
2023-05-21T23:48:03.043Z,11.65
2023-05-21T23:50:31.420Z,11.10
2023-05-21T23:53:00.028Z,11.50
2023-05-21T23:55:28.205Z,12.63
2023-05-21T23:57:57.736Z,11.93
